sensor_id;sensor_type;location;lat;lon;timestamp;pressure;altitude;pressure_sealevel;temperature;humidity
59939;BME280;45801;51.810;19.444;2023-12-07T00:01:26;99270.61;;;1.22;66.39
59939;BME280;45801;51.810;19.444;2023-12-07T00:03:52;99270.11;;;1.22;66.62
59939;BME280;45801;51.810;19.444;2023-12-07T00:06:19;99271.77;;;1.21;66.50
59939;BME280;45801;51.810;19.444;2023-12-07T00:08:46;99269.54;;;1.21;66.43
59939;BME280;45801;51.810;19.444;2023-12-07T00:11:12;99270.98;;;1.22;66.38
59939;BME280;45801;51.810;19.444;2023-12-07T00:13:39;99271.36;;;1.23;66.52
59939;BME280;45801;51.810;19.444;2023-12-07T00:16:06;99268.53;;;1.24;66.51
59939;BME280;45801;51.810;19.444;2023-12-07T00:18:32;99266.82;;;1.27;66.50
59939;BME280;45801;51.810;19.444;2023-12-07T00:20:59;99269.33;;;1.28;66.49
59939;BME280;45801;51.810;19.444;2023-12-07T00:23:26;99264.13;;;1.28;66.48
59939;BME280;45801;51.810;19.444;2023-12-07T00:25:52;99258.33;;;1.28;66.49
59939;BME280;45801;51.810;19.444;2023-12-07T00:28:19;99263.72;;;1.29;66.52
59939;BME280;45801;51.810;19.444;2023-12-07T00:30:47;99263.86;;;1.29;66.51
59939;BME280;45801;51.810;19.444;2023-12-07T00:33:13;99262.23;;;1.28;66.32
59939;BME280;45801;51.810;19.444;2023-12-07T00:35:41;99260.86;;;1.26;66.44
59939;BME280;45801;51.810;19.444;2023-12-07T00:38:08;99263.88;;;1.24;66.49
59939;BME280;45801;51.810;19.444;2023-12-07T00:40:34;99264.32;;;1.25;66.61
59939;BME280;45801;51.810;19.444;2023-12-07T00:43:03;99266.30;;;1.26;66.52
59939;BME280;45801;51.810;19.444;2023-12-07T00:45:30;99267.78;;;1.28;66.43
59939;BME280;45801;51.810;19.444;2023-12-07T00:47:57;99269.16;;;1.30;66.36
59939;BME280;45801;51.810;19.444;2023-12-07T00:50:23;99269.41;;;1.29;66.38
59939;BME280;45801;51.810;19.444;2023-12-07T00:52:51;99269.89;;;1.28;66.53
59939;BME280;45801;51.810;19.444;2023-12-07T00:55:18;99266.16;;;1.29;66.51
59939;BME280;45801;51.810;19.444;2023-12-07T00:57:45;99265.86;;;1.29;66.25
59939;BME280;45801;51.810;19.444;2023-12-07T01:00:12;99266.39;;;1.30;66.19
59939;BME280;45801;51.810;19.444;2023-12-07T01:02:40;99268.25;;;1.29;66.34
59939;BME280;45801;51.810;19.444;2023-12-07T01:05:08;99271.48;;;1.29;66.30
59939;BME280;45801;51.810;19.444;2023-12-07T01:07:35;99273.29;;;1.30;66.41
59939;BME280;45801;51.810;19.444;2023-12-07T01:10:02;99278.23;;;1.31;66.25
59939;BME280;45801;51.810;19.444;2023-12-07T01:12:29;99277.65;;;1.30;66.26
59939;BME280;45801;51.810;19.444;2023-12-07T01:14:56;99280.95;;;1.29;66.34
59939;BME280;45801;51.810;19.444;2023-12-07T01:17:22;99280.36;;;1.28;66.38
59939;BME280;45801;51.810;19.444;2023-12-07T01:19:49;99280.98;;;1.27;66.31
59939;BME280;45801;51.810;19.444;2023-12-07T01:22:16;99281.34;;;1.27;66.36
59939;BME280;45801;51.810;19.444;2023-12-07T01:24:42;99284.02;;;1.28;66.28
59939;BME280;45801;51.810;19.444;2023-12-07T01:27:10;99284.39;;;1.28;66.20
59939;BME280;45801;51.810;19.444;2023-12-07T01:29:38;99283.43;;;1.27;66.29
59939;BME280;45801;51.810;19.444;2023-12-07T01:32:05;99286.41;;;1.28;66.32
59939;BME280;45801;51.810;19.444;2023-12-07T01:34:32;99286.34;;;1.27;66.30
59939;BME280;45801;51.810;19.444;2023-12-07T01:37:01;99289.05;;;1.26;66.34
59939;BME280;45801;51.810;19.444;2023-12-07T01:39:28;99291.73;;;1.28;66.41
59939;BME280;45801;51.810;19.444;2023-12-07T01:41:55;99290.24;;;1.39;66.93
59939;BME280;45801;51.810;19.444;2023-12-07T01:44:22;99284.02;;;1.81;67.31
59939;BME280;45801;51.810;19.444;2023-12-07T01:46:49;99280.32;;;2.04;66.24
59939;BME280;45801;51.810;19.444;2023-12-07T01:49:16;99280.91;;;2.05;65.89
59939;BME280;45801;51.810;19.444;2023-12-07T01:51:45;99285.30;;;1.99;65.68
59939;BME280;45801;51.810;19.444;2023-12-07T01:54:13;99291.06;;;1.91;65.81
59939;BME280;45801;51.810;19.444;2023-12-07T01:56:40;99292.44;;;1.87;65.68
59939;BME280;45801;51.810;19.444;2023-12-07T01:59:07;99292.77;;;1.82;65.81
59939;BME280;45801;51.810;19.444;2023-12-07T02:01:34;99293.59;;;1.79;65.78
59939;BME280;45801;51.810;19.444;2023-12-07T02:04:01;99298.34;;;1.76;65.87
59939;BME280;45801;51.810;19.444;2023-12-07T02:06:29;99298.36;;;1.71;65.97
59939;BME280;45801;51.810;19.444;2023-12-07T02:08:56;99295.96;;;1.68;65.97
59939;BME280;45801;51.810;19.444;2023-12-07T02:11:22;99295.29;;;1.63;65.98
59939;BME280;45801;51.810;19.444;2023-12-07T02:13:49;99297.96;;;1.60;66.03
59939;BME280;45801;51.810;19.444;2023-12-07T02:16:24;99295.53;;;1.58;66.14
59939;BME280;45801;51.810;19.444;2023-12-07T02:19:18;99298.61;;;1.55;66.34
59939;BME280;45801;51.810;19.444;2023-12-07T02:21:57;99298.80;;;1.53;66.46
59939;BME280;45801;51.810;19.444;2023-12-07T02:24:27;99302.92;;;1.53;66.54
59939;BME280;45801;51.810;19.444;2023-12-07T02:26:55;99300.46;;;1.52;66.60
59939;BME280;45801;51.810;19.444;2023-12-07T02:29:22;99304.18;;;1.51;66.59
59939;BME280;45801;51.810;19.444;2023-12-07T02:31:49;99303.20;;;1.50;66.54
59939;BME280;45801;51.810;19.444;2023-12-07T02:34:16;99303.27;;;1.51;66.57
59939;BME280;45801;51.810;19.444;2023-12-07T02:36:44;99301.69;;;1.53;66.53
59939;BME280;45801;51.810;19.444;2023-12-07T02:39:13;99307.59;;;1.53;66.47
59939;BME280;45801;51.810;19.444;2023-12-07T02:41:41;99309.13;;;1.53;66.59
59939;BME280;45801;51.810;19.444;2023-12-07T02:44:09;99310.39;;;1.51;66.67
59939;BME280;45801;51.810;19.444;2023-12-07T02:46:37;99310.27;;;1.50;66.66
59939;BME280;45801;51.810;19.444;2023-12-07T02:49:04;99314.50;;;1.48;66.66
59939;BME280;45801;51.810;19.444;2023-12-07T02:51:30;99316.06;;;1.49;66.86
59939;BME280;45801;51.810;19.444;2023-12-07T02:53:57;99319.05;;;1.49;66.61
59939;BME280;45801;51.810;19.444;2023-12-07T02:56:24;99319.59;;;1.50;66.67
59939;BME280;45801;51.810;19.444;2023-12-07T02:58:50;99323.44;;;1.50;66.54
59939;BME280;45801;51.810;19.444;2023-12-07T03:01:17;99320.39;;;1.51;66.61
59939;BME280;45801;51.810;19.444;2023-12-07T03:03:44;99320.28;;;1.52;66.66
59939;BME280;45801;51.810;19.444;2023-12-07T03:06:10;99322.56;;;1.50;66.53
59939;BME280;45801;51.810;19.444;2023-12-07T03:08:37;99328.23;;;1.50;66.57
59939;BME280;45801;51.810;19.444;2023-12-07T03:11:05;99327.45;;;1.51;66.74
59939;BME280;45801;51.810;19.444;2023-12-07T03:13:31;99324.77;;;1.52;66.50
59939;BME280;45801;51.810;19.444;2023-12-07T03:15:58;99326.58;;;1.51;66.41
59939;BME280;45801;51.810;19.444;2023-12-07T03:18:25;99328.58;;;1.50;66.60
59939;BME280;45801;51.810;19.444;2023-12-07T03:20:53;99327.75;;;1.48;66.62
59939;BME280;45801;51.810;19.444;2023-12-07T03:23:19;99326.31;;;1.47;66.69
59939;BME280;45801;51.810;19.444;2023-12-07T03:25:46;99326.14;;;1.47;66.57
59939;BME280;45801;51.810;19.444;2023-12-07T03:28:13;99327.00;;;1.47;66.60
59939;BME280;45801;51.810;19.444;2023-12-07T03:30:39;99328.48;;;1.47;66.78
59939;BME280;45801;51.810;19.444;2023-12-07T03:33:06;99327.98;;;1.47;66.78
59939;BME280;45801;51.810;19.444;2023-12-07T03:35:33;99327.94;;;1.46;66.77
59939;BME280;45801;51.810;19.444;2023-12-07T03:38:00;99325.48;;;1.46;66.82
59939;BME280;45801;51.810;19.444;2023-12-07T03:40:27;99326.45;;;1.45;66.84
59939;BME280;45801;51.810;19.444;2023-12-07T03:42:54;99328.84;;;1.47;66.65
59939;BME280;45801;51.810;19.444;2023-12-07T03:45:21;99328.11;;;1.49;66.78
59939;BME280;45801;51.810;19.444;2023-12-07T03:47:47;99326.75;;;1.51;66.87
59939;BME280;45801;51.810;19.444;2023-12-07T03:50:14;99326.11;;;1.51;66.62
59939;BME280;45801;51.810;19.444;2023-12-07T03:52:40;99321.38;;;1.50;66.69
59939;BME280;45801;51.810;19.444;2023-12-07T03:55:07;99318.53;;;1.50;66.53
59939;BME280;45801;51.810;19.444;2023-12-07T03:57:35;99323.61;;;1.50;66.76
59939;BME280;45801;51.810;19.444;2023-12-07T04:00:02;99323.96;;;1.50;66.87
59939;BME280;45801;51.810;19.444;2023-12-07T04:02:32;99322.23;;;1.50;66.89
59939;BME280;45801;51.810;19.444;2023-12-07T04:04:59;99319.29;;;1.52;66.70
59939;BME280;45801;51.810;19.444;2023-12-07T04:07:28;99320.55;;;1.55;66.68
59939;BME280;45801;51.810;19.444;2023-12-07T04:09:58;99323.39;;;1.54;66.72
59939;BME280;45801;51.810;19.444;2023-12-07T04:12:25;99325.69;;;1.53;66.71
59939;BME280;45801;51.810;19.444;2023-12-07T04:14:52;99327.04;;;1.50;66.67
59939;BME280;45801;51.810;19.444;2023-12-07T04:17:19;99323.51;;;1.49;66.77
59939;BME280;45801;51.810;19.444;2023-12-07T04:19:45;99324.17;;;1.49;66.84
59939;BME280;45801;51.810;19.444;2023-12-07T04:22:12;99324.77;;;1.48;66.79
59939;BME280;45801;51.810;19.444;2023-12-07T04:24:39;99327.06;;;1.46;66.76
59939;BME280;45801;51.810;19.444;2023-12-07T04:27:05;99329.39;;;1.45;67.07
59939;BME280;45801;51.810;19.444;2023-12-07T04:29:33;99327.09;;;1.47;66.99
59939;BME280;45801;51.810;19.444;2023-12-07T04:31:59;99327.27;;;1.49;67.01
59939;BME280;45801;51.810;19.444;2023-12-07T04:34:26;99327.64;;;1.51;66.97
59939;BME280;45801;51.810;19.444;2023-12-07T04:36:53;99330.84;;;1.52;66.96
59939;BME280;45801;51.810;19.444;2023-12-07T04:39:22;99333.23;;;1.52;66.81
59939;BME280;45801;51.810;19.444;2023-12-07T04:41:48;99339.14;;;1.52;66.92
59939;BME280;45801;51.810;19.444;2023-12-07T04:44:15;99341.55;;;1.53;66.97
59939;BME280;45801;51.810;19.444;2023-12-07T04:46:42;99343.11;;;1.53;66.98
59939;BME280;45801;51.810;19.444;2023-12-07T04:49:09;99344.30;;;1.52;66.92
59939;BME280;45801;51.810;19.444;2023-12-07T04:51:36;99346.98;;;1.51;67.09
59939;BME280;45801;51.810;19.444;2023-12-07T04:54:03;99345.19;;;1.51;67.10
59939;BME280;45801;51.810;19.444;2023-12-07T04:56:29;99349.66;;;1.52;67.10
59939;BME280;45801;51.810;19.444;2023-12-07T04:58:56;99350.72;;;1.53;67.03
59939;BME280;45801;51.810;19.444;2023-12-07T05:01:23;99349.62;;;1.52;67.04
59939;BME280;45801;51.810;19.444;2023-12-07T05:03:49;99357.71;;;1.52;67.24
59939;BME280;45801;51.810;19.444;2023-12-07T05:06:16;99356.33;;;1.52;67.06
59939;BME280;45801;51.810;19.444;2023-12-07T05:08:43;99355.27;;;1.51;67.00
59939;BME280;45801;51.810;19.444;2023-12-07T05:11:10;99354.06;;;1.51;67.22
59939;BME280;45801;51.810;19.444;2023-12-07T05:13:38;99359.39;;;1.53;67.36
59939;BME280;45801;51.810;19.444;2023-12-07T05:16:05;99357.03;;;1.54;67.18
59939;BME280;45801;51.810;19.444;2023-12-07T05:18:32;99358.45;;;1.52;67.22
59939;BME280;45801;51.810;19.444;2023-12-07T05:20:59;99363.80;;;1.52;67.24
59939;BME280;45801;51.810;19.444;2023-12-07T05:23:26;99367.87;;;1.53;67.32
59939;BME280;45801;51.810;19.444;2023-12-07T05:25:52;99371.83;;;1.53;67.28
59939;BME280;45801;51.810;19.444;2023-12-07T05:28:20;99374.95;;;1.54;67.26
59939;BME280;45801;51.810;19.444;2023-12-07T05:30:48;99373.33;;;1.53;67.27
59939;BME280;45801;51.810;19.444;2023-12-07T05:33:15;99376.77;;;1.52;67.26
59939;BME280;45801;51.810;19.444;2023-12-07T05:35:42;99381.19;;;1.54;67.42
59939;BME280;45801;51.810;19.444;2023-12-07T05:38:09;99383.80;;;1.56;67.35
59939;BME280;45801;51.810;19.444;2023-12-07T05:40:35;99386.77;;;1.59;67.30
59939;BME280;45801;51.810;19.444;2023-12-07T05:43:02;99385.05;;;1.59;67.36
59939;BME280;45801;51.810;19.444;2023-12-07T05:45:30;99385.44;;;1.59;67.39
59939;BME280;45801;51.810;19.444;2023-12-07T05:47:57;99390.89;;;1.61;67.42
59939;BME280;45801;51.810;19.444;2023-12-07T05:50:23;99389.13;;;1.63;67.41
59939;BME280;45801;51.810;19.444;2023-12-07T05:52:50;99391.00;;;1.62;67.48
59939;BME280;45801;51.810;19.444;2023-12-07T05:55:16;99390.84;;;1.62;67.28
59939;BME280;45801;51.810;19.444;2023-12-07T05:57:45;99389.06;;;1.62;67.47
59939;BME280;45801;51.810;19.444;2023-12-07T06:00:13;99390.00;;;1.62;67.40
59939;BME280;45801;51.810;19.444;2023-12-07T06:02:39;99390.38;;;1.63;67.44
59939;BME280;45801;51.810;19.444;2023-12-07T06:05:06;99388.10;;;1.63;67.47
59939;BME280;45801;51.810;19.444;2023-12-07T06:07:33;99390.83;;;1.62;67.52
59939;BME280;45801;51.810;19.444;2023-12-07T06:10:01;99392.30;;;1.63;67.54
59939;BME280;45801;51.810;19.444;2023-12-07T06:12:28;99395.80;;;1.64;67.55
59939;BME280;45801;51.810;19.444;2023-12-07T06:14:54;99403.08;;;1.64;67.55
59939;BME280;45801;51.810;19.444;2023-12-07T06:17:21;99408.12;;;1.64;67.44
59939;BME280;45801;51.810;19.444;2023-12-07T06:19:48;99410.81;;;1.64;67.64
59939;BME280;45801;51.810;19.444;2023-12-07T06:22:15;99415.34;;;1.64;67.71
59939;BME280;45801;51.810;19.444;2023-12-07T06:24:41;99414.64;;;1.64;67.58
59939;BME280;45801;51.810;19.444;2023-12-07T06:27:08;99418.43;;;1.64;67.76
59939;BME280;45801;51.810;19.444;2023-12-07T06:29:37;99420.73;;;1.65;67.58
59939;BME280;45801;51.810;19.444;2023-12-07T06:32:05;99415.60;;;1.65;67.68
59939;BME280;45801;51.810;19.444;2023-12-07T06:34:33;99418.58;;;1.68;67.67
59939;BME280;45801;51.810;19.444;2023-12-07T06:37:01;99419.37;;;1.69;67.61
59939;BME280;45801;51.810;19.444;2023-12-07T06:39:28;99421.56;;;1.71;67.73
59939;BME280;45801;51.810;19.444;2023-12-07T06:41:55;99425.96;;;1.72;67.67
59939;BME280;45801;51.810;19.444;2023-12-07T06:44:22;99429.89;;;1.75;67.72
59939;BME280;45801;51.810;19.444;2023-12-07T06:46:48;99432.65;;;1.80;67.56
59939;BME280;45801;51.810;19.444;2023-12-07T06:49:16;99430.85;;;1.81;67.60
59939;BME280;45801;51.810;19.444;2023-12-07T06:51:42;99431.41;;;1.82;67.71
59939;BME280;45801;51.810;19.444;2023-12-07T06:54:09;99432.31;;;1.84;67.63
59939;BME280;45801;51.810;19.444;2023-12-07T06:56:36;99428.59;;;1.85;67.50
59939;BME280;45801;51.810;19.444;2023-12-07T06:59:02;99432.59;;;1.83;67.63
59939;BME280;45801;51.810;19.444;2023-12-07T07:01:29;99431.64;;;1.82;67.61
59939;BME280;45801;51.810;19.444;2023-12-07T07:03:56;99433.52;;;1.82;67.68
59939;BME280;45801;51.810;19.444;2023-12-07T07:06:23;99432.97;;;1.84;67.74
59939;BME280;45801;51.810;19.444;2023-12-07T07:08:49;99432.55;;;1.85;67.83
59939;BME280;45801;51.810;19.444;2023-12-07T07:11:16;99431.30;;;1.85;67.83
59939;BME280;45801;51.810;19.444;2023-12-07T07:13:43;99426.48;;;1.85;67.88
59939;BME280;45801;51.810;19.444;2023-12-07T07:16:09;99427.13;;;1.86;67.79
59939;BME280;45801;51.810;19.444;2023-12-07T07:18:40;99429.90;;;1.88;67.73
59939;BME280;45801;51.810;19.444;2023-12-07T07:21:07;99429.66;;;1.89;67.78
59939;BME280;45801;51.810;19.444;2023-12-07T07:23:35;99430.23;;;1.90;67.79
59939;BME280;45801;51.810;19.444;2023-12-07T07:26:02;99432.23;;;1.91;67.71
59939;BME280;45801;51.810;19.444;2023-12-07T07:28:29;99433.02;;;1.90;67.63
59939;BME280;45801;51.810;19.444;2023-12-07T07:30:55;99434.67;;;1.90;67.81
59939;BME280;45801;51.810;19.444;2023-12-07T07:33:22;99439.15;;;1.92;67.88
59939;BME280;45801;51.810;19.444;2023-12-07T07:35:49;99440.61;;;1.93;67.76
59939;BME280;45801;51.810;19.444;2023-12-07T07:38:15;99445.15;;;1.93;67.72
59939;BME280;45801;51.810;19.444;2023-12-07T07:40:42;99447.92;;;1.91;67.70
59939;BME280;45801;51.810;19.444;2023-12-07T07:43:09;99448.17;;;1.90;67.99
59939;BME280;45801;51.810;19.444;2023-12-07T07:45:35;99444.75;;;1.93;67.95
59939;BME280;45801;51.810;19.444;2023-12-07T07:48:02;99442.65;;;1.97;68.12
59939;BME280;45801;51.810;19.444;2023-12-07T07:50:29;99437.92;;;2.00;67.77
59939;BME280;45801;51.810;19.444;2023-12-07T07:52:55;99437.27;;;2.01;67.84
59939;BME280;45801;51.810;19.444;2023-12-07T07:55:22;99437.06;;;2.01;67.84
59939;BME280;45801;51.810;19.444;2023-12-07T07:57:49;99433.79;;;2.01;67.74
59939;BME280;45801;51.810;19.444;2023-12-07T08:00:15;99434.11;;;2.00;67.89
59939;BME280;45801;51.810;19.444;2023-12-07T08:02:42;99435.09;;;2.02;67.98
59939;BME280;45801;51.810;19.444;2023-12-07T08:05:09;99435.56;;;2.03;67.81
59939;BME280;45801;51.810;19.444;2023-12-07T08:07:35;99439.00;;;2.05;67.79
59939;BME280;45801;51.810;19.444;2023-12-07T08:10:02;99444.23;;;2.06;67.74
59939;BME280;45801;51.810;19.444;2023-12-07T08:12:30;99448.29;;;2.07;67.64
59939;BME280;45801;51.810;19.444;2023-12-07T08:14:56;99447.13;;;2.07;67.69
59939;BME280;45801;51.810;19.444;2023-12-07T08:17:23;99443.59;;;2.06;67.79
59939;BME280;45801;51.810;19.444;2023-12-07T08:19:49;99441.65;;;2.08;67.72
59939;BME280;45801;51.810;19.444;2023-12-07T08:22:16;99444.20;;;2.10;67.79
59939;BME280;45801;51.810;19.444;2023-12-07T08:24:43;99446.60;;;2.12;67.78
59939;BME280;45801;51.810;19.444;2023-12-07T08:27:10;99449.83;;;2.11;67.69
59939;BME280;45801;51.810;19.444;2023-12-07T08:29:36;99449.81;;;2.11;67.79
59939;BME280;45801;51.810;19.444;2023-12-07T08:32:03;99447.09;;;2.11;67.80
59939;BME280;45801;51.810;19.444;2023-12-07T08:34:30;99450.70;;;2.13;67.89
59939;BME280;45801;51.810;19.444;2023-12-07T08:36:56;99456.20;;;2.15;68.01
59939;BME280;45801;51.810;19.444;2023-12-07T08:39:24;99460.57;;;2.18;68.00
59939;BME280;45801;51.810;19.444;2023-12-07T08:41:51;99463.31;;;2.22;67.80
59939;BME280;45801;51.810;19.444;2023-12-07T08:44:19;99465.36;;;2.24;67.74
59939;BME280;45801;51.810;19.444;2023-12-07T08:46:46;99463.52;;;2.26;67.80
59939;BME280;45801;51.810;19.444;2023-12-07T08:49:12;99463.89;;;2.29;67.71
59939;BME280;45801;51.810;19.444;2023-12-07T08:51:39;99463.64;;;2.30;67.66
59939;BME280;45801;51.810;19.444;2023-12-07T08:54:06;99467.73;;;2.32;67.69
59939;BME280;45801;51.810;19.444;2023-12-07T08:56:32;99469.27;;;2.32;67.77
59939;BME280;45801;51.810;19.444;2023-12-07T08:58:59;99470.83;;;2.32;67.81
59939;BME280;45801;51.810;19.444;2023-12-07T09:01:26;99473.65;;;2.32;67.96
59939;BME280;45801;51.810;19.444;2023-12-07T09:03:53;99473.36;;;2.33;67.81
59939;BME280;45801;51.810;19.444;2023-12-07T09:06:19;99476.45;;;2.33;67.88
59939;BME280;45801;51.810;19.444;2023-12-07T09:08:46;99480.38;;;2.35;68.04
59939;BME280;45801;51.810;19.444;2023-12-07T09:11:12;99478.70;;;2.39;67.95
59939;BME280;45801;51.810;19.444;2023-12-07T09:13:39;99478.57;;;2.44;67.83
59939;BME280;45801;51.810;19.444;2023-12-07T09:16:06;99479.52;;;2.50;67.81
59939;BME280;45801;51.810;19.444;2023-12-07T09:18:33;99479.14;;;2.58;67.87
59939;BME280;45801;51.810;19.444;2023-12-07T09:21:02;99474.54;;;2.68;67.63
59939;BME280;45801;51.810;19.444;2023-12-07T09:23:31;99468.45;;;2.76;67.46
59939;BME280;45801;51.810;19.444;2023-12-07T09:25:58;99469.13;;;2.78;67.33
59939;BME280;45801;51.810;19.444;2023-12-07T09:28:25;99470.31;;;2.80;67.38
59939;BME280;45801;51.810;19.444;2023-12-07T09:30:51;99470.46;;;2.85;67.36
59939;BME280;45801;51.810;19.444;2023-12-07T09:33:18;99470.63;;;2.89;67.16
59939;BME280;45801;51.810;19.444;2023-12-07T09:35:45;99467.66;;;2.91;67.01
59939;BME280;45801;51.810;19.444;2023-12-07T09:38:12;99469.63;;;2.90;67.11
59939;BME280;45801;51.810;19.444;2023-12-07T09:40:38;99469.83;;;2.92;67.17
59939;BME280;45801;51.810;19.444;2023-12-07T09:43:05;99467.83;;;2.95;67.24
59939;BME280;45801;51.810;19.444;2023-12-07T09:45:32;99465.63;;;2.98;67.13
59939;BME280;45801;51.810;19.444;2023-12-07T09:47:59;99462.11;;;3.00;67.12
59939;BME280;45801;51.810;19.444;2023-12-07T09:50:27;99457.70;;;3.01;67.12
59939;BME280;45801;51.810;19.444;2023-12-07T09:52:57;99457.72;;;3.04;67.15
59939;BME280;45801;51.810;19.444;2023-12-07T09:55:24;99458.00;;;3.07;67.16
59939;BME280;45801;51.810;19.444;2023-12-07T09:57:52;99457.48;;;3.12;67.08
59939;BME280;45801;51.810;19.444;2023-12-07T10:00:21;99457.42;;;3.15;67.03
59939;BME280;45801;51.810;19.444;2023-12-07T10:02:47;99459.59;;;3.19;66.88
59939;BME280;45801;51.810;19.444;2023-12-07T10:05:15;99455.79;;;3.24;66.66
59939;BME280;45801;51.810;19.444;2023-12-07T10:07:48;99454.50;;;3.25;66.54
59939;BME280;45801;51.810;19.444;2023-12-07T10:10:17;99455.15;;;3.25;66.60
59939;BME280;45801;51.810;19.444;2023-12-07T10:15:22;99454.55;;;3.21;66.82
59939;BME280;45801;51.810;19.444;2023-12-07T10:17:53;99451.35;;;3.23;66.99
59939;BME280;45801;51.810;19.444;2023-12-07T10:20:22;99450.91;;;3.26;66.59
59939;BME280;45801;51.810;19.444;2023-12-07T10:23:08;99455.14;;;3.27;66.52
59939;BME280;45801;51.810;19.444;2023-12-07T10:25:40;99454.55;;;3.26;66.61
59939;BME280;45801;51.810;19.444;2023-12-07T10:28:10;99454.02;;;3.26;66.52
59939;BME280;45801;51.810;19.444;2023-12-07T10:30:40;99453.16;;;3.26;66.55
59939;BME280;45801;51.810;19.444;2023-12-07T10:33:07;99454.78;;;3.24;66.49
59939;BME280;45801;51.810;19.444;2023-12-07T10:35:41;99456.45;;;3.24;66.62
59939;BME280;45801;51.810;19.444;2023-12-07T10:38:09;99453.71;;;3.24;66.81
59939;BME280;45801;51.810;19.444;2023-12-07T10:40:36;99452.94;;;3.25;66.90
59939;BME280;45801;51.810;19.444;2023-12-07T10:43:05;99453.36;;;3.26;66.83
59939;BME280;45801;51.810;19.444;2023-12-07T10:45:32;99451.88;;;3.29;66.82
59939;BME280;45801;51.810;19.444;2023-12-07T10:48:08;99449.19;;;3.32;66.66
59939;BME280;45801;51.810;19.444;2023-12-07T10:50:37;99450.55;;;3.34;66.73
59939;BME280;45801;51.810;19.444;2023-12-07T10:53:38;99451.92;;;3.37;66.54
59939;BME280;45801;51.810;19.444;2023-12-07T10:56:10;99448.31;;;3.37;66.65
59939;BME280;45801;51.810;19.444;2023-12-07T10:58:38;99446.17;;;3.36;66.58
59939;BME280;45801;51.810;19.444;2023-12-07T11:01:07;99445.41;;;3.35;66.67
59939;BME280;45801;51.810;19.444;2023-12-07T11:03:35;99441.91;;;3.35;66.64
59939;BME280;45801;51.810;19.444;2023-12-07T11:06:04;99442.73;;;3.37;66.66
59939;BME280;45801;51.810;19.444;2023-12-07T11:08:38;99439.69;;;3.38;66.74
59939;BME280;45801;51.810;19.444;2023-12-07T11:11:29;99439.54;;;3.52;66.72
59939;BME280;45801;51.810;19.444;2023-12-07T11:14:03;99443.68;;;3.63;66.28
59939;BME280;45801;51.810;19.444;2023-12-07T11:16:41;99446.29;;;3.66;65.99
59939;BME280;45801;51.810;19.444;2023-12-07T11:22:00;99451.64;;;3.66;65.76
59939;BME280;45801;51.810;19.444;2023-12-07T11:24:27;99448.64;;;3.60;65.82
59939;BME280;45801;51.810;19.444;2023-12-07T11:26:55;99444.74;;;3.57;66.08
59939;BME280;45801;51.810;19.444;2023-12-07T11:29:24;99440.00;;;3.56;65.88
59939;BME280;45801;51.810;19.444;2023-12-07T11:31:55;99442.19;;;3.57;65.65
59939;BME280;45801;51.810;19.444;2023-12-07T11:34:35;99441.92;;;3.68;65.70
59939;BME280;45801;51.810;19.444;2023-12-07T11:37:03;99444.05;;;3.74;65.43
59939;BME280;45801;51.810;19.444;2023-12-07T11:39:34;99439.39;;;3.74;65.42
59939;BME280;45801;51.810;19.444;2023-12-07T11:42:13;99439.27;;;3.72;65.45
59939;BME280;45801;51.810;19.444;2023-12-07T11:44:42;99436.08;;;3.68;65.50
59939;BME280;45801;51.810;19.444;2023-12-07T11:47:15;99440.19;;;3.68;65.66
59939;BME280;45801;51.810;19.444;2023-12-07T11:49:46;99440.27;;;3.67;65.48
59939;BME280;45801;51.810;19.444;2023-12-07T11:52:15;99443.12;;;3.61;65.30
59939;BME280;45801;51.810;19.444;2023-12-07T11:54:46;99443.12;;;3.56;65.80
59939;BME280;45801;51.810;19.444;2023-12-07T11:57:14;99442.83;;;3.57;65.87
59939;BME280;45801;51.810;19.444;2023-12-07T11:59:43;99441.02;;;3.58;65.96
59939;BME280;45801;51.810;19.444;2023-12-07T12:02:11;99438.77;;;3.61;66.10
59939;BME280;45801;51.810;19.444;2023-12-07T12:04:40;99438.10;;;3.63;65.88
59939;BME280;45801;51.810;19.444;2023-12-07T12:07:07;99438.28;;;3.63;65.91
59939;BME280;45801;51.810;19.444;2023-12-07T12:09:34;99436.72;;;3.61;65.93
59939;BME280;45801;51.810;19.444;2023-12-07T12:12:01;99436.45;;;3.60;66.12
59939;BME280;45801;51.810;19.444;2023-12-07T12:14:28;99437.89;;;3.60;65.90
59939;BME280;45801;51.810;19.444;2023-12-07T12:16:54;99437.19;;;3.58;65.88
59939;BME280;45801;51.810;19.444;2023-12-07T12:19:24;99439.27;;;3.52;65.91
59939;BME280;45801;51.810;19.444;2023-12-07T12:21:51;99438.98;;;3.49;65.95
59939;BME280;45801;51.810;19.444;2023-12-07T12:24:17;99438.61;;;3.47;65.97
59939;BME280;45801;51.810;19.444;2023-12-07T12:26:46;99438.72;;;3.43;66.13
59939;BME280;45801;51.810;19.444;2023-12-07T12:29:14;99435.67;;;3.40;66.00
59939;BME280;45801;51.810;19.444;2023-12-07T12:31:42;99433.80;;;3.38;66.06
59939;BME280;45801;51.810;19.444;2023-12-07T12:34:10;99433.79;;;3.38;66.18
59939;BME280;45801;51.810;19.444;2023-12-07T12:36:39;99433.73;;;3.32;66.13
59939;BME280;45801;51.810;19.444;2023-12-07T12:39:05;99435.59;;;3.29;66.35
59939;BME280;45801;51.810;19.444;2023-12-07T12:41:34;99439.16;;;3.26;66.46
59939;BME280;45801;51.810;19.444;2023-12-07T12:44:01;99442.37;;;3.23;66.62
59939;BME280;45801;51.810;19.444;2023-12-07T12:46:28;99440.59;;;3.22;66.63
59939;BME280;45801;51.810;19.444;2023-12-07T12:48:59;99442.48;;;3.22;66.71
59939;BME280;45801;51.810;19.444;2023-12-07T12:51:27;99446.37;;;3.23;66.72
59939;BME280;45801;51.810;19.444;2023-12-07T12:53:56;99451.83;;;3.24;66.75
59939;BME280;45801;51.810;19.444;2023-12-07T12:56:23;99446.36;;;3.25;66.77
59939;BME280;45801;51.810;19.444;2023-12-07T12:58:50;99447.02;;;3.29;66.86
59939;BME280;45801;51.810;19.444;2023-12-07T13:01:18;99443.56;;;3.31;66.52
59939;BME280;45801;51.810;19.444;2023-12-07T13:03:45;99440.42;;;3.31;66.58
59939;BME280;45801;51.810;19.444;2023-12-07T13:06:15;99439.42;;;3.29;66.63
59939;BME280;45801;51.810;19.444;2023-12-07T13:08:46;99436.92;;;3.28;66.66